Terminal Aerodrome Forecast
Issued by NWS

Home | Current Version | Previous Version | Text Only | Print | Product List | Glossary On
Versions: 1 2 3 4 5 6 7 8 9 10 11 12 13 14 15 16 17 18 19 20 21 22 23 24 25 26 27 28 29
000
FTUS41 KOKX 241932 AAA
TAFSWF
TAF AMD
KSWF 241932Z 2420/2524 01008G15KT P6SM FEW045
     FM242300 35007KT P6SM SKC
     FM250500 32005KT P6SM SKC
     FM251400 35005KT P6SM SKC
      AMD NOT SKED=

USA.gov is the U.S. government's official web portal to all federal, state and local government web resources and services.